createdAt,value
2019-04-26T00:00:27.941Z,1005.78
2019-04-26T00:01:27.930Z,1005.77
2019-04-26T00:02:27.919Z,1005.67
2019-04-26T00:03:27.914Z,1005.55
2019-04-26T00:04:27.897Z,1005.56
2019-04-26T00:05:35.229Z,1005.54
2019-04-26T00:06:28.878Z,1005.57
2019-04-26T00:07:27.878Z,1005.58
2019-04-26T00:08:27.857Z,1005.63
2019-04-26T00:09:27.844Z,1005.70
2019-04-26T00:10:27.853Z,1005.70
2019-04-26T00:11:27.826Z,1005.74
2019-04-26T00:12:27.815Z,1005.83
2019-04-26T00:13:27.803Z,1005.86
2019-04-26T00:14:27.792Z,1005.90
2019-04-26T00:15:27.807Z,1005.92
2019-04-26T00:16:27.781Z,1005.90
2019-04-26T00:17:27.760Z,1005.95
2019-04-26T00:18:27.751Z,1005.91
2019-04-26T00:19:27.740Z,1006.00
2019-04-26T00:20:27.730Z,1005.99
2019-04-26T00:21:27.737Z,1006.05
2019-04-26T00:22:27.707Z,1006.03
2019-04-26T00:23:27.698Z,1006.00
2019-04-26T00:24:28.510Z,1006.02
2019-04-26T00:25:27.688Z,1005.94
2019-04-26T00:26:27.685Z,1006.02
2019-04-26T00:27:27.655Z,1006.01
2019-04-26T00:28:27.646Z,1006.03
2019-04-26T00:29:27.634Z,1006.06
2019-04-26T00:30:27.623Z,1006.05
2019-04-26T00:31:27.654Z,1005.98
2019-04-26T00:32:27.604Z,1005.98
2019-04-26T00:33:27.590Z,1005.98
2019-04-26T00:34:27.593Z,1005.95
2019-04-26T00:35:27.571Z,1005.97
2019-04-26T00:36:27.558Z,1006.01
2019-04-26T00:37:27.569Z,1006.10
2019-04-26T00:38:27.539Z,1006.07
2019-04-26T00:39:27.530Z,1006.15
2019-04-26T00:40:27.519Z,1006.18
2019-04-26T00:41:27.507Z,1006.13
2019-04-26T00:42:27.517Z,1006.13
2019-04-26T00:43:27.495Z,1006.18
2019-04-26T00:44:27.477Z,1006.12
2019-04-26T00:45:27.469Z,1006.09
2019-04-26T00:46:27.458Z,1006.04
2019-04-26T00:47:27.470Z,1006.04
2019-04-26T00:48:27.433Z,1006.06
2019-04-26T00:49:27.423Z,1006.09
2019-04-26T00:50:27.414Z,1006.10
2019-04-26T00:51:27.404Z,1006.16
2019-04-26T00:52:27.401Z,1006.10
2019-04-26T00:53:27.402Z,1006.09
2019-04-26T00:54:27.370Z,1006.11
2019-04-26T00:55:27.360Z,1006.10
2019-04-26T00:56:27.349Z,1006.16
2019-04-26T00:57:27.342Z,1006.16
2019-04-26T00:58:27.352Z,1006.28
2019-04-26T00:59:27.317Z,1006.31
2019-04-26T01:00:27.306Z,1006.37
2019-04-26T01:01:27.309Z,1006.48
2019-04-26T01:02:27.287Z,1006.47
2019-04-26T01:03:27.293Z,1006.53
2019-04-26T01:04:27.266Z,1006.53
2019-04-26T01:05:27.255Z,1006.54
2019-04-26T01:06:27.242Z,1006.54
2019-04-26T01:07:27.233Z,1006.50
2019-04-26T01:08:27.246Z,1006.48
2019-04-26T01:09:27.212Z,1006.51
2019-04-26T01:10:27.221Z,1006.56
2019-04-26T01:11:27.192Z,1006.57
2019-04-26T01:12:27.179Z,1006.65
2019-04-26T01:13:27.183Z,1006.70
2019-04-26T01:14:27.177Z,1006.74
2019-04-26T01:15:27.151Z,1006.77
2019-04-26T01:16:27.138Z,1006.78
2019-04-26T01:17:27.126Z,1006.76
2019-04-26T01:18:27.115Z,1006.79
2019-04-26T01:19:27.137Z,1006.74
2019-04-26T01:20:27.095Z,1006.72
2019-04-26T01:21:27.084Z,1006.76
2019-04-26T01:22:27.607Z,1006.79
2019-04-26T01:23:27.266Z,1006.79
2019-04-26T01:24:27.311Z,1006.79
2019-04-26T01:25:27.429Z,1006.74
2019-04-26T01:26:27.446Z,1006.71
2019-04-26T01:27:27.746Z,1006.70
2019-04-26T01:28:27.929Z,1006.72
2019-04-26T01:29:27.961Z,1006.75
2019-04-26T01:30:27.921Z,1006.79
2019-04-26T01:31:28.138Z,1006.79
2019-04-26T01:32:26.980Z,1006.77
2019-04-26T01:33:26.956Z,1006.76
2019-04-26T01:34:26.947Z,1006.75
2019-04-26T01:35:26.957Z,1006.73
2019-04-26T01:36:26.927Z,1006.79
2019-04-26T01:37:26.927Z,1006.79
2019-04-26T01:38:27.705Z,1006.80
2019-04-26T01:39:27.905Z,1006.85
2019-04-26T01:40:26.926Z,1006.85
2019-04-26T01:41:26.873Z,1006.89
2019-04-26T01:42:26.862Z,1006.82
2019-04-26T01:43:26.855Z,1006.90
2019-04-26T01:44:26.841Z,1006.92
2019-04-26T01:45:27.842Z,1006.87
2019-04-26T01:46:26.918Z,1006.82
2019-04-26T01:47:26.827Z,1006.76
2019-04-26T01:48:27.133Z,1006.76
2019-04-26T01:49:26.793Z,1006.74
2019-04-26T01:50:27.371Z,1006.77
2019-04-26T01:51:26.786Z,1006.87
2019-04-26T01:52:27.644Z,1006.87
2019-04-26T01:53:26.747Z,1006.91
2019-04-26T01:54:27.734Z,1006.96
2019-04-26T01:55:27.037Z,1006.94
2019-04-26T01:56:27.126Z,1006.92
2019-04-26T01:57:27.281Z,1006.94
2019-04-26T01:58:27.225Z,1006.92
2019-04-26T01:59:27.382Z,1006.88
2019-04-26T02:00:27.486Z,1006.90
2019-04-26T02:01:27.475Z,1006.92
2019-04-26T02:02:27.668Z,1006.91
2019-04-26T02:03:27.748Z,1006.90
2019-04-26T02:04:27.764Z,1006.86
2019-04-26T02:05:26.625Z,1006.77
2019-04-26T02:06:32.016Z,1006.70
2019-04-26T02:07:28.323Z,1006.58
2019-04-26T02:08:26.587Z,1006.62
2019-04-26T02:09:26.576Z,1006.64
2019-04-26T02:10:26.740Z,1006.73
2019-04-26T02:11:26.779Z,1006.76
2019-04-26T02:12:26.786Z,1006.69
2019-04-26T02:13:26.857Z,1006.70
2019-04-26T02:14:26.916Z,1006.65
2019-04-26T02:15:27.181Z,1006.65
2019-04-26T02:16:27.033Z,1006.65
2019-04-26T02:17:27.277Z,1006.66
2019-04-26T02:18:27.324Z,1006.75
2019-04-26T02:19:27.426Z,1006.78
2019-04-26T02:20:27.500Z,1006.85
2019-04-26T02:21:26.643Z,1006.89
2019-04-26T02:22:26.449Z,1006.90
2019-04-26T02:23:26.566Z,1006.89
2019-04-26T02:24:26.498Z,1006.90
2019-04-26T02:25:26.413Z,1006.92
2019-04-26T02:26:26.689Z,1006.92
2019-04-26T02:27:26.387Z,1006.93
2019-04-26T02:28:26.777Z,1006.96
2019-04-26T02:29:26.799Z,1006.94
2019-04-26T02:30:27.244Z,1006.99
2019-04-26T02:31:27.314Z,1006.93
2019-04-26T02:32:27.433Z,1006.98
2019-04-26T02:33:27.513Z,1006.94
2019-04-26T02:34:28.954Z,1007.01
2019-04-26T02:35:27.177Z,1007.00
2019-04-26T02:36:44.998Z,1007.02
2019-04-26T02:37:28.753Z,1006.97
2019-04-26T02:38:27.886Z,1006.94
2019-04-26T02:39:28.110Z,1006.97
2019-04-26T02:40:28.132Z,1006.98
2019-04-26T02:41:28.127Z,1007.00
2019-04-26T02:42:28.025Z,1006.93
2019-04-26T02:43:28.090Z,1007.02
2019-04-26T02:44:26.703Z,1007.08
2019-04-26T02:45:26.933Z,1007.12
2019-04-26T02:46:28.401Z,1007.12
2019-04-26T02:47:26.957Z,1007.14
2019-04-26T02:48:27.116Z,1007.17
2019-04-26T02:49:27.424Z,1007.20
2019-04-26T02:50:28.361Z,1007.18
2019-04-26T02:51:28.473Z,1007.21
2019-04-26T02:52:27.874Z,1007.25
2019-04-26T02:53:28.864Z,1007.20
2019-04-26T02:54:27.816Z,1007.20
2019-04-26T02:55:26.133Z,1007.22
2019-04-26T02:56:26.104Z,1007.14
2019-04-26T02:57:26.076Z,1007.08
2019-04-26T02:58:26.065Z,1007.04
2019-04-26T02:59:26.062Z,1006.97
2019-04-26T03:00:26.061Z,1006.96
2019-04-26T03:01:26.030Z,1006.98
2019-04-26T03:02:26.019Z,1006.99
2019-04-26T03:03:26.010Z,1007.05
2019-04-26T03:04:26.008Z,1007.09
2019-04-26T03:05:26.580Z,1007.14
2019-04-26T03:06:25.978Z,1007.15
2019-04-26T03:07:25.984Z,1007.20
2019-04-26T03:08:25.955Z,1007.23
2019-04-26T03:09:25.951Z,1007.29
2019-04-26T03:10:25.965Z,1007.29
2019-04-26T03:11:25.936Z,1007.33
2019-04-26T03:12:25.915Z,1007.31
2019-04-26T03:13:25.908Z,1007.31
2019-04-26T03:14:25.901Z,1007.26
2019-04-26T03:15:25.885Z,1007.19
2019-04-26T03:16:25.897Z,1007.20
2019-04-26T03:17:25.866Z,1007.22
2019-04-26T03:18:25.856Z,1007.13
2019-04-26T03:19:25.846Z,1007.08
2019-04-26T03:20:25.834Z,1007.10
2019-04-26T03:21:25.908Z,1007.09
2019-04-26T03:22:25.810Z,1007.02
2019-04-26T03:23:41.377Z,1006.97
2019-04-26T03:24:26.790Z,1006.90
2019-04-26T03:25:25.779Z,1006.89
2019-04-26T03:26:25.770Z,1006.93
2019-04-26T03:27:25.881Z,1006.97
2019-04-26T03:28:25.749Z,1007.06
2019-04-26T03:29:25.764Z,1007.13
2019-04-26T03:30:25.726Z,1007.16
2019-04-26T03:31:25.724Z,1007.14
2019-04-26T03:32:25.721Z,1007.17
2019-04-26T03:33:25.953Z,1007.21
2019-04-26T03:34:25.712Z,1007.20
2019-04-26T03:35:25.675Z,1007.25
2019-04-26T03:36:25.669Z,1007.29
2019-04-26T03:37:25.653Z,1007.33
2019-04-26T03:38:25.662Z,1007.31
2019-04-26T03:39:25.633Z,1007.33
2019-04-26T03:40:25.626Z,1007.36
2019-04-26T03:41:25.608Z,1007.36
2019-04-26T03:42:25.606Z,1007.31
2019-04-26T03:43:25.622Z,1007.28
2019-04-26T03:44:25.575Z,1007.26
2019-04-26T03:45:25.568Z,1007.28
2019-04-26T03:46:25.562Z,1007.27
2019-04-26T03:47:25.595Z,1007.30
2019-04-26T03:48:25.537Z,1007.33
2019-04-26T03:49:25.555Z,1007.33
2019-04-26T03:50:25.521Z,1007.30
2019-04-26T03:51:25.500Z,1007.32
2019-04-26T03:52:25.493Z,1007.33
2019-04-26T03:53:25.488Z,1007.37
2019-04-26T03:54:25.490Z,1007.33
2019-04-26T03:55:25.482Z,1007.21
2019-04-26T03:56:25.453Z,1007.21
2019-04-26T03:57:25.444Z,1007.26
2019-04-26T03:58:25.432Z,1007.23
2019-04-26T03:59:25.445Z,1007.20
2019-04-26T04:00:25.428Z,1007.13
2019-04-26T04:01:25.402Z,1007.08
2019-04-26T04:02:25.392Z,1007.11
2019-04-26T04:03:26.986Z,1007.18
2019-04-26T04:04:25.374Z,1007.16
2019-04-26T04:05:27.096Z,1007.19
2019-04-26T04:06:25.345Z,1007.22
2019-04-26T04:07:36.693Z,1007.22
2019-04-26T04:08:26.332Z,1007.27
2019-04-26T04:09:25.322Z,1007.21
2019-04-26T04:10:25.335Z,1007.20
2019-04-26T04:11:25.325Z,1007.15
2019-04-26T04:12:25.431Z,1007.12
2019-04-26T04:13:25.274Z,1007.13
2019-04-26T04:14:25.422Z,1007.13
2019-04-26T04:15:25.254Z,1007.22
2019-04-26T04:16:25.622Z,1007.23
2019-04-26T04:17:25.254Z,1007.27
2019-04-26T04:18:25.269Z,1007.26
2019-04-26T04:19:25.212Z,1007.25
2019-04-26T04:20:25.219Z,1007.27
2019-04-26T04:21:25.234Z,1007.28
2019-04-26T04:22:25.178Z,1007.26
2019-04-26T04:23:25.171Z,1007.28
2019-04-26T04:24:25.156Z,1007.34
2019-04-26T04:25:25.152Z,1007.34
2019-04-26T04:26:25.136Z,1007.34
2019-04-26T04:27:25.150Z,1007.42
2019-04-26T04:28:25.119Z,1007.44
2019-04-26T04:29:39.391Z,1007.44
2019-04-26T04:30:26.091Z,1007.48
2019-04-26T04:31:25.090Z,1007.47
2019-04-26T04:32:25.098Z,1007.49
2019-04-26T04:33:25.061Z,1007.47
2019-04-26T04:34:25.069Z,1007.43
2019-04-26T04:35:25.040Z,1007.44
2019-04-26T04:36:25.029Z,1007.43
2019-04-26T04:37:25.021Z,1007.44
2019-04-26T04:38:25.068Z,1007.45
2019-04-26T04:39:25.028Z,1007.48
2019-04-26T04:40:24.984Z,1007.52
2019-04-26T04:41:24.980Z,1007.51
2019-04-26T04:42:25.008Z,1007.48
2019-04-26T04:43:25.084Z,1007.48
2019-04-26T04:44:24.945Z,1007.52
2019-04-26T04:45:24.943Z,1007.48
2019-04-26T04:46:25.010Z,1007.49
2019-04-26T04:47:25.691Z,1007.55
2019-04-26T04:48:24.925Z,1007.56
2019-04-26T04:49:24.894Z,1007.52
2019-04-26T04:50:24.889Z,1007.50
2019-04-26T04:51:24.872Z,1007.48
2019-04-26T04:52:24.861Z,1007.43
2019-04-26T04:53:24.882Z,1007.41
2019-04-26T04:54:24.838Z,1007.37
2019-04-26T04:55:24.829Z,1007.35
2019-04-26T04:56:24.827Z,1007.37
2019-04-26T04:57:24.809Z,1007.34
2019-04-26T04:58:24.798Z,1007.30
2019-04-26T04:59:25.120Z,1007.33
2019-04-26T05:00:24.778Z,1007.35
2019-04-26T05:01:24.769Z,1007.45
2019-04-26T05:02:24.750Z,1007.54
2019-04-26T05:03:24.751Z,1007.64
2019-04-26T05:04:24.756Z,1007.65
2019-04-26T05:05:24.724Z,1007.74
2019-04-26T05:06:24.720Z,1007.72
2019-04-26T05:07:24.705Z,1007.77
2019-04-26T05:08:24.702Z,1007.79
2019-04-26T05:09:24.720Z,1007.81
2019-04-26T05:10:24.735Z,1007.80
2019-04-26T05:11:24.658Z,1007.77
2019-04-26T05:12:24.646Z,1007.77
2019-04-26T05:13:24.642Z,1007.79
2019-04-26T05:14:24.641Z,1007.78
2019-04-26T05:15:24.636Z,1007.82
2019-04-26T05:16:24.607Z,1007.82
2019-04-26T05:17:26.084Z,1007.93
2019-04-26T05:18:24.584Z,1007.98
2019-04-26T05:19:24.582Z,1007.96
2019-04-26T05:20:24.583Z,1008.06
2019-04-26T05:21:24.568Z,1008.10
2019-04-26T05:22:24.542Z,1008.09
2019-04-26T05:23:24.536Z,1008.07
2019-04-26T05:24:24.523Z,1008.07
2019-04-26T05:25:24.556Z,1008.08
2019-04-26T05:26:24.508Z,1008.08
2019-04-26T05:27:24.488Z,1008.01
2019-04-26T05:28:24.492Z,1008.09
2019-04-26T05:29:24.470Z,1007.95
2019-04-26T05:30:24.458Z,1007.99
2019-04-26T05:31:24.475Z,1007.91
2019-04-26T05:32:24.440Z,1007.90
2019-04-26T05:33:24.434Z,1007.92
2019-04-26T05:34:24.423Z,1007.96
2019-04-26T05:35:24.404Z,1007.98
2019-04-26T05:36:24.421Z,1007.97
2019-04-26T05:37:24.388Z,1008.01
2019-04-26T05:38:24.371Z,1008.01
2019-04-26T05:39:24.366Z,1007.94
2019-04-26T05:40:24.352Z,1008.04
2019-04-26T05:41:24.370Z,1007.95
2019-04-26T05:42:24.335Z,1007.96
2019-04-26T05:43:24.322Z,1007.94
2019-04-26T05:44:24.321Z,1008.02
2019-04-26T05:45:24.301Z,1008.00
2019-04-26T05:46:24.338Z,1008.02
2019-04-26T05:47:24.284Z,1008.04
2019-04-26T05:48:24.269Z,1008.02
2019-04-26T05:49:24.257Z,1008.04
2019-04-26T05:50:24.257Z,1008.05
2019-04-26T05:51:24.238Z,1008.08
2019-04-26T05:52:24.258Z,1008.04
2019-04-26T05:53:24.212Z,1008.02
2019-04-26T05:54:24.232Z,1008.00
2019-04-26T05:55:24.207Z,1008.04
2019-04-26T05:56:24.179Z,1008.06
2019-04-26T05:57:24.172Z,1008.03
2019-04-26T05:58:24.179Z,1008.07
2019-04-26T05:59:24.157Z,1008.09
2019-04-26T06:00:24.142Z,1008.07
2019-04-26T06:01:24.134Z,1008.09
2019-04-26T06:02:24.165Z,1008.09
2019-04-26T06:03:24.129Z,1008.16
2019-04-26T06:04:24.102Z,1008.15
2019-04-26T06:05:24.095Z,1008.19
2019-04-26T06:06:24.086Z,1008.18
2019-04-26T06:07:24.102Z,1008.21
2019-04-26T06:08:31.073Z,1008.20
2019-04-26T06:09:25.045Z,1008.20
2019-04-26T06:10:24.040Z,1008.19
2019-04-26T06:11:24.025Z,1008.17
2019-04-26T06:12:24.017Z,1008.20
2019-04-26T06:13:24.034Z,1008.21
2019-04-26T06:14:23.999Z,1008.17
2019-04-26T06:15:23.980Z,1008.19
2019-04-26T06:16:23.978Z,1008.19
2019-04-26T06:17:23.964Z,1008.18
2019-04-26T06:18:23.994Z,1008.17
2019-04-26T06:19:23.944Z,1008.15
2019-04-26T06:20:23.940Z,1008.15
2019-04-26T06:21:23.917Z,1008.15
2019-04-26T06:22:23.910Z,1008.13
2019-04-26T06:23:23.897Z,1008.17
2019-04-26T06:24:23.909Z,1008.09
2019-04-26T06:25:23.883Z,1008.08
2019-04-26T06:26:23.867Z,1008.09
2019-04-26T06:27:23.857Z,1008.14
2019-04-26T06:28:23.850Z,1008.17
2019-04-26T06:29:23.858Z,1008.24
2019-04-26T06:30:23.825Z,1008.42
2019-04-26T06:31:23.877Z,1008.50
2019-04-26T06:32:23.829Z,1008.55
2019-04-26T06:33:23.811Z,1008.61
2019-04-26T06:34:23.787Z,1008.60
2019-04-26T06:35:23.800Z,1008.63
2019-04-26T06:36:23.769Z,1008.69
2019-04-26T06:37:23.754Z,1008.75
2019-04-26T06:38:23.741Z,1008.88
2019-04-26T06:39:23.732Z,1008.90
2019-04-26T06:40:23.739Z,1008.93
2019-04-26T06:41:23.707Z,1008.84
2019-04-26T06:42:23.698Z,1008.79
2019-04-26T06:43:26.380Z,1008.78
2019-04-26T06:44:23.675Z,1008.78
2019-04-26T06:45:23.715Z,1008.74
2019-04-26T06:46:23.658Z,1008.83
2019-04-26T06:47:23.646Z,1008.85
2019-04-26T06:48:23.635Z,1008.82
2019-04-26T06:49:23.629Z,1008.82
2019-04-26T06:50:23.624Z,1008.87
2019-04-26T06:51:25.121Z,1008.82
2019-04-26T06:52:23.590Z,1008.81
2019-04-26T06:53:23.589Z,1008.80
2019-04-26T06:54:23.573Z,1008.82
2019-04-26T06:55:23.559Z,1008.87
2019-04-26T06:56:23.589Z,1008.83
2019-04-26T06:57:23.542Z,1008.87
2019-04-26T06:58:23.532Z,1008.92
2019-04-26T06:59:35.570Z,1008.93
2019-04-26T07:00:24.529Z,1008.95
2019-04-26T07:01:23.499Z,1008.89
2019-04-26T07:02:23.506Z,1008.86
2019-04-26T07:03:23.472Z,1008.79
2019-04-26T07:04:23.478Z,1008.78
2019-04-26T07:05:23.463Z,1008.81
2019-04-26T07:06:34.509Z,1008.72
2019-04-26T07:07:26.148Z,1008.83
2019-04-26T07:08:23.426Z,1008.85
2019-04-26T07:09:23.414Z,1008.87
2019-04-26T07:10:23.402Z,1008.87
2019-04-26T07:11:23.393Z,1008.89
2019-04-26T07:12:23.399Z,1008.88
2019-04-26T07:13:23.372Z,1008.84
2019-04-26T07:14:23.358Z,1008.83
2019-04-26T07:15:28.618Z,1008.84
2019-04-26T07:16:24.337Z,1008.88
2019-04-26T07:17:23.353Z,1008.90
2019-04-26T07:18:23.320Z,1008.87
2019-04-26T07:19:23.312Z,1008.91
2019-04-26T07:20:23.309Z,1008.86
2019-04-26T07:21:23.286Z,1008.78
2019-04-26T07:22:34.724Z,1008.79
2019-04-26T07:23:24.264Z,1008.80
2019-04-26T07:24:23.260Z,1008.82
2019-04-26T07:25:23.244Z,1008.84
2019-04-26T07:26:23.237Z,1008.84
2019-04-26T07:27:23.240Z,1008.84
2019-04-26T07:28:23.261Z,1008.90
2019-04-26T07:29:23.201Z,1008.96
2019-04-26T07:30:23.285Z,1008.98
2019-04-26T07:31:23.186Z,1009.03
2019-04-26T07:32:23.181Z,1009.08
2019-04-26T07:33:23.181Z,1009.06
2019-04-26T07:34:23.149Z,1009.10
2019-04-26T07:35:23.142Z,1009.13
2019-04-26T07:36:23.129Z,1009.13
2019-04-26T07:37:23.120Z,1009.21
2019-04-26T07:38:23.134Z,1009.19
2019-04-26T07:39:23.098Z,1009.17
2019-04-26T07:40:23.085Z,1009.23
2019-04-26T07:41:23.071Z,1009.22
2019-04-26T07:42:23.064Z,1009.27
2019-04-26T07:43:23.081Z,1009.29
2019-04-26T07:44:23.049Z,1009.31
2019-04-26T07:45:23.075Z,1009.38
2019-04-26T07:46:23.025Z,1009.37
2019-04-26T07:47:23.009Z,1009.39
2019-04-26T07:48:23.001Z,1009.37
2019-04-26T07:49:23.009Z,1009.34
2019-04-26T07:50:22.978Z,1009.35
2019-04-26T07:51:22.970Z,1009.38
2019-04-26T07:52:22.993Z,1009.35
2019-04-26T07:53:22.965Z,1009.32
2019-04-26T07:54:22.991Z,1009.29
2019-04-26T07:55:22.928Z,1009.26
2019-04-26T07:56:22.924Z,1009.29
2019-04-26T07:57:22.907Z,1009.26
2019-04-26T07:58:22.896Z,1009.30
2019-04-26T07:59:22.889Z,1009.26
2019-04-26T08:00:22.891Z,1009.25
2019-04-26T08:01:22.863Z,1009.28
2019-04-26T08:02:22.855Z,1009.26
2019-04-26T08:03:22.843Z,1009.24
2019-04-26T08:04:22.833Z,1009.26
2019-04-26T08:05:22.839Z,1009.27
2019-04-26T08:06:22.812Z,1009.22
2019-04-26T08:07:22.801Z,1009.26
2019-04-26T08:08:22.791Z,1009.30
2019-04-26T08:09:26.996Z,1009.31
2019-04-26T08:10:22.794Z,1009.33
2019-04-26T08:11:22.758Z,1009.33
2019-04-26T08:12:22.756Z,1009.32
2019-04-26T08:13:22.737Z,1009.35
2019-04-26T08:14:22.735Z,1009.36
2019-04-26T08:15:25.019Z,1009.41
2019-04-26T08:16:22.728Z,1009.48
2019-04-26T08:17:22.692Z,1009.48
2019-04-26T08:18:22.693Z,1009.49
2019-04-26T08:19:22.686Z,1009.50
2019-04-26T08:20:22.660Z,1009.55
2019-04-26T08:21:22.674Z,1009.55
2019-04-26T08:22:28.317Z,1009.54
2019-04-26T08:23:39.243Z,1009.53
2019-04-26T08:24:23.644Z,1009.54
2019-04-26T08:25:22.612Z,1009.57
2019-04-26T08:26:22.623Z,1009.61
2019-04-26T08:27:24.142Z,1009.61
2019-04-26T08:28:22.586Z,1009.63
2019-04-26T08:29:22.581Z,1009.58
2019-04-26T08:30:22.891Z,1009.62
2019-04-26T08:31:24.284Z,1009.60
2019-04-26T08:32:22.539Z,1009.58
2019-04-26T08:33:22.531Z,1009.59
2019-04-26T08:34:28.885Z,1009.51
2019-04-26T08:35:23.502Z,1009.51
2019-04-26T08:36:23.233Z,1009.50
2019-04-26T08:37:22.528Z,1009.52
2019-04-26T08:38:22.955Z,1009.63
2019-04-26T08:39:24.369Z,1009.58
2019-04-26T08:40:30.611Z,1009.64
2019-04-26T08:41:23.452Z,1009.61
2019-04-26T08:42:24.716Z,1009.67
2019-04-26T08:43:22.659Z,1009.72
2019-04-26T08:44:22.416Z,1009.71
2019-04-26T08:45:22.395Z,1009.72
2019-04-26T08:46:22.385Z,1009.73
2019-04-26T08:47:26.284Z,1009.77
2019-04-26T08:48:27.552Z,1009.74
2019-04-26T08:49:23.919Z,1009.81
2019-04-26T08:50:22.344Z,1009.78
2019-04-26T08:51:22.338Z,1009.79
2019-04-26T08:52:22.323Z,1009.74
2019-04-26T08:53:22.357Z,1009.76
2019-04-26T08:54:22.303Z,1009.78
2019-04-26T08:55:22.293Z,1009.77
2019-04-26T08:56:22.287Z,1009.80
2019-04-26T08:57:22.269Z,1009.75
2019-04-26T08:58:22.265Z,1009.74
2019-04-26T08:59:22.266Z,1009.74
2019-04-26T09:00:22.237Z,1009.82
2019-04-26T09:01:22.235Z,1009.77
2019-04-26T09:02:22.220Z,1009.76
2019-04-26T09:03:22.208Z,1009.75
2019-04-26T09:04:22.218Z,1009.79
2019-04-26T09:05:22.186Z,1009.71
2019-04-26T09:06:22.181Z,1009.76
2019-04-26T09:07:22.166Z,1009.73
2019-04-26T09:08:22.154Z,1009.79
2019-04-26T09:09:22.160Z,1009.82
2019-04-26T09:10:22.144Z,1009.82
2019-04-26T09:11:26.448Z,1009.83
2019-04-26T09:12:23.668Z,1009.85
2019-04-26T09:13:22.099Z,1009.85
2019-04-26T09:14:22.131Z,1009.88
2019-04-26T09:15:22.079Z,1009.88
2019-04-26T09:16:22.110Z,1009.92
2019-04-26T09:17:22.058Z,1009.93
2019-04-26T09:18:22.047Z,1009.93
2019-04-26T09:19:22.037Z,1009.89
2019-04-26T09:20:28.509Z,1009.89
2019-04-26T09:21:23.013Z,1009.88
2019-04-26T09:22:22.515Z,1009.87
2019-04-26T09:23:21.994Z,1009.86
2019-04-26T09:24:24.905Z,1009.84
2019-04-26T09:25:22.828Z,1009.84
2019-04-26T09:26:22.030Z,1009.79
2019-04-26T09:27:22.517Z,1009.79
2019-04-26T09:28:21.950Z,1009.80
2019-04-26T09:29:21.929Z,1009.83
2019-04-26T09:30:33.335Z,1009.83
2019-04-26T09:31:22.908Z,1009.84
2019-04-26T09:32:24.201Z,1009.85
2019-04-26T09:33:22.936Z,1009.85
2019-04-26T09:34:21.877Z,1009.84
2019-04-26T09:35:21.895Z,1009.76
2019-04-26T09:36:21.879Z,1009.77
2019-04-26T09:37:21.848Z,1009.79
2019-04-26T09:38:21.839Z,1009.75
2019-04-26T09:39:21.831Z,1009.84
2019-04-26T09:40:22.849Z,1009.88
2019-04-26T09:41:21.805Z,1009.93
2019-04-26T09:42:21.811Z,1009.93
2019-04-26T09:43:21.782Z,1009.93
2019-04-26T09:44:21.778Z,1010.00
2019-04-26T09:45:21.764Z,1010.02
2019-04-26T09:46:21.773Z,1010.05
2019-04-26T09:47:21.742Z,1010.10
2019-04-26T09:48:21.733Z,1010.07
2019-04-26T09:49:21.719Z,1010.10
2019-04-26T09:50:21.760Z,1010.11
2019-04-26T09:51:21.717Z,1010.08
2019-04-26T09:52:21.686Z,1010.09
2019-04-26T09:53:21.690Z,1010.11
2019-04-26T09:54:21.705Z,1010.13
2019-04-26T09:55:21.675Z,1010.11
2019-04-26T09:56:21.684Z,1010.08
2019-04-26T09:57:21.700Z,1010.12
2019-04-26T09:58:21.632Z,1010.13
2019-04-26T09:59:21.613Z,1010.15
2019-04-26T10:00:21.602Z,1010.11
2019-04-26T10:01:24.066Z,1010.18
2019-04-26T10:02:21.590Z,1010.21
2019-04-26T10:03:21.575Z,1010.15
2019-04-26T10:04:21.562Z,1010.17
2019-04-26T10:05:22.363Z,1010.15
2019-04-26T10:06:21.557Z,1010.15
2019-04-26T10:07:21.529Z,1010.19
2019-04-26T10:08:21.516Z,1010.21
2019-04-26T10:09:22.804Z,1010.22
2019-04-26T10:10:23.022Z,1010.16
2019-04-26T10:11:21.509Z,1010.17
2019-04-26T10:12:21.480Z,1010.09
2019-04-26T10:13:21.466Z,1010.09
2019-04-26T10:14:21.452Z,1010.01
2019-04-26T10:15:22.514Z,1010.04
2019-04-26T10:16:21.437Z,1010.05
2019-04-26T10:17:21.438Z,1010.07
2019-04-26T10:18:24.267Z,1010.12
2019-04-26T10:19:21.398Z,1010.11
2019-04-26T10:20:21.390Z,1010.17
2019-04-26T10:21:21.379Z,1010.20
2019-04-26T10:22:21.405Z,1010.20
2019-04-26T10:23:21.420Z,1010.24
2019-04-26T10:24:21.345Z,1010.21
2019-04-26T10:25:21.343Z,1010.19
2019-04-26T10:26:23.147Z,1010.21
2019-04-26T10:27:22.356Z,1010.16
2019-04-26T10:28:21.306Z,1010.23
2019-04-26T10:29:21.660Z,1010.20
2019-04-26T10:30:21.287Z,1010.20
2019-04-26T10:31:21.277Z,1010.23
2019-04-26T10:32:21.641Z,1010.17
2019-04-26T10:33:21.274Z,1010.20
2019-04-26T10:34:21.242Z,1010.15
2019-04-26T10:35:21.820Z,1010.15
2019-04-26T10:36:21.220Z,1010.11
2019-04-26T10:37:21.212Z,1010.17
2019-04-26T10:38:23.914Z,1010.15
2019-04-26T10:39:21.196Z,1010.20
2019-04-26T10:40:21.178Z,1010.14
2019-04-26T10:41:21.171Z,1010.15
2019-04-26T10:42:21.154Z,1010.13
2019-04-26T10:43:21.172Z,1010.18
2019-04-26T10:44:21.135Z,1010.14
2019-04-26T10:45:21.125Z,1010.18
2019-04-26T10:46:24.498Z,1010.18
2019-04-26T10:47:22.108Z,1010.14
2019-04-26T10:48:23.173Z,1010.16
2019-04-26T10:49:24.657Z,1010.09
2019-04-26T10:50:21.076Z,1010.08
2019-04-26T10:51:21.060Z,1010.02
2019-04-26T10:52:21.051Z,1009.99
2019-04-26T10:53:21.038Z,1009.98
2019-04-26T10:54:21.045Z,1009.93
2019-04-26T10:55:21.016Z,1009.89
2019-04-26T10:56:24.279Z,1009.94
2019-04-26T10:57:20.996Z,1009.95
2019-04-26T10:58:20.986Z,1009.95
2019-04-26T10:59:22.745Z,1009.96
2019-04-26T11:00:20.966Z,1009.96
2019-04-26T11:01:20.951Z,1010.01
2019-04-26T11:02:20.953Z,1009.98
2019-04-26T11:03:20.975Z,1009.97
2019-04-26T11:04:20.971Z,1009.99
2019-04-26T11:05:20.943Z,1010.02
2019-04-26T11:06:24.047Z,1010.14
2019-04-26T11:07:21.889Z,1010.16
2019-04-26T11:08:20.879Z,1010.23
2019-04-26T11:09:20.868Z,1010.25
2019-04-26T11:10:20.899Z,1010.20
2019-04-26T11:11:20.846Z,1010.13
2019-04-26T11:12:20.837Z,1010.06
2019-04-26T11:13:20.831Z,1010.12
2019-04-26T11:14:22.588Z,1009.98
2019-04-26T11:15:20.821Z,1010.02
2019-04-26T11:16:20.793Z,1010.00
2019-04-26T11:17:20.780Z,1010.00
2019-04-26T11:18:27.396Z,1009.99
2019-04-26T11:19:21.807Z,1009.92
2019-04-26T11:20:20.769Z,1009.96
2019-04-26T11:21:22.350Z,1009.93
2019-04-26T11:22:28.976Z,1009.89
2019-04-26T11:23:21.741Z,1009.85
2019-04-26T11:24:20.913Z,1009.81
2019-04-26T11:25:20.717Z,1009.83
2019-04-26T11:26:20.682Z,1009.83
2019-04-26T11:27:20.682Z,1009.86
2019-04-26T11:28:21.276Z,1009.89
2019-04-26T11:29:20.656Z,1009.88
2019-04-26T11:30:21.305Z,1009.90
2019-04-26T11:31:23.459Z,1009.90
2019-04-26T11:32:21.619Z,1009.89
2019-04-26T11:33:20.605Z,1009.87
2019-04-26T11:34:23.607Z,1009.90
2019-04-26T11:35:20.623Z,1009.84
2019-04-26T11:36:20.606Z,1009.83
2019-04-26T11:37:20.692Z,1009.87
2019-04-26T11:38:21.812Z,1009.84
2019-04-26T11:39:20.567Z,1009.85
2019-04-26T11:40:20.536Z,1009.86
2019-04-26T11:41:20.546Z,1009.84
2019-04-26T11:42:20.513Z,1009.88
2019-04-26T11:43:21.103Z,1009.96
2019-04-26T11:44:23.376Z,1009.95
2019-04-26T11:45:21.479Z,1009.91
2019-04-26T11:46:21.393Z,1009.92
2019-04-26T11:47:21.460Z,1009.94
2019-04-26T11:48:20.449Z,1009.95
2019-04-26T11:49:20.439Z,1009.98
2019-04-26T11:50:20.446Z,1009.94
2019-04-26T11:51:23.564Z,1009.96
2019-04-26T11:52:21.404Z,1009.91
2019-04-26T11:53:20.393Z,1009.90
2019-04-26T11:54:21.077Z,1009.92
2019-04-26T11:55:20.371Z,1009.91
2019-04-26T11:56:20.394Z,1009.89
2019-04-26T11:57:20.351Z,1009.92
2019-04-26T11:58:22.621Z,1009.90
2019-04-26T11:59:20.330Z,1009.89
2019-04-26T12:00:20.316Z,1009.89
2019-04-26T12:01:20.310Z,1009.89
2019-04-26T12:02:20.317Z,1009.87
2019-04-26T12:03:21.172Z,1009.91
2019-04-26T12:04:20.277Z,1009.90
2019-04-26T12:05:20.271Z,1009.88